createdAt,value
2019-05-06T00:01:17.287Z,54.37
2019-05-06T00:03:43.546Z,54.38
2019-05-06T00:06:09.315Z,54.32
2019-05-06T00:08:35.331Z,54.28
2019-05-06T00:11:01.323Z,54.25
2019-05-06T00:13:27.352Z,54.27
2019-05-06T00:15:54.358Z,54.30
2019-05-06T00:18:19.364Z,54.32
2019-05-06T00:20:45.383Z,54.26
2019-05-06T00:23:11.388Z,54.26
2019-05-06T00:25:37.402Z,54.25
2019-05-06T00:28:05.833Z,54.28
2019-05-06T00:30:29.431Z,54.25
2019-05-06T00:32:55.430Z,54.21
2019-05-06T00:35:23.368Z,54.24
2019-05-06T00:37:47.454Z,54.22
2019-05-06T00:40:14.089Z,54.21
2019-05-06T00:42:39.488Z,54.13
2019-05-06T00:45:05.494Z,54.20
2019-05-06T00:47:33.844Z,54.11
2019-05-06T00:49:57.513Z,54.20
2019-05-06T00:52:25.841Z,54.10
2019-05-06T00:54:49.554Z,54.36
2019-05-06T00:57:15.562Z,54.15
2019-05-06T00:59:41.583Z,54.13
2019-05-06T01:02:07.585Z,54.14
2019-05-06T01:04:33.975Z,54.34
2019-05-06T01:06:59.618Z,54.13
2019-05-06T01:09:25.651Z,54.13
2019-05-06T01:11:51.677Z,54.12
2019-05-06T01:14:17.690Z,54.08
2019-05-06T01:16:44.020Z,54.13
2019-05-06T01:19:09.707Z,54.15
2019-05-06T01:21:35.712Z,54.05
2019-05-06T01:24:03.788Z,54.06
2019-05-06T01:26:27.719Z,54.01
2019-05-06T01:28:54.559Z,54.08
2019-05-06T01:31:19.734Z,54.07
2019-05-06T01:33:45.734Z,54.04
2019-05-06T01:36:13.598Z,54.02
2019-05-06T01:38:37.751Z,54.05
2019-05-06T01:41:04.028Z,54.02
2019-05-06T01:43:29.796Z,54.03
2019-05-06T01:45:55.792Z,54.07
2019-05-06T01:48:21.819Z,53.99
2019-05-06T01:50:47.811Z,53.99
2019-05-06T01:53:14.044Z,53.96
2019-05-06T01:55:39.904Z,53.95
2019-05-06T01:58:05.910Z,53.99
2019-05-06T02:00:31.923Z,53.98
2019-05-06T02:02:57.932Z,53.93
2019-05-06T02:05:24.288Z,53.94
2019-05-06T02:07:49.943Z,53.96
2019-05-06T02:10:15.958Z,53.94
2019-05-06T02:12:41.975Z,53.93
2019-05-06T02:15:07.969Z,53.90
2019-05-06T02:17:34.513Z,53.94
2019-05-06T02:19:59.989Z,53.93
2019-05-06T02:22:25.994Z,54.08
2019-05-06T02:24:53.628Z,53.88
2019-05-06T02:27:18.009Z,53.93
2019-05-06T02:29:44.035Z,53.89
2019-05-06T02:32:21.047Z,53.89
2019-05-06T02:34:36.690Z,53.85
2019-05-06T02:37:05.954Z,53.89
2019-05-06T02:39:28.131Z,53.85
2019-05-06T02:41:54.970Z,53.84
2019-05-06T02:44:20.157Z,53.91
2019-05-06T02:46:46.175Z,53.87
2019-05-06T02:49:13.247Z,53.81
2019-05-06T02:51:38.196Z,53.85
2019-05-06T02:54:04.214Z,53.87
2019-05-06T02:56:33.156Z,53.86
2019-05-06T02:58:56.232Z,53.82
2019-05-06T03:01:23.333Z,53.84
2019-05-06T03:03:48.243Z,53.80
2019-05-06T03:06:14.234Z,53.78
2019-05-06T03:08:43.198Z,53.80
2019-05-06T03:11:06.265Z,53.75
2019-05-06T03:13:33.926Z,53.81
2019-05-06T03:15:58.293Z,53.74
2019-05-06T03:18:24.288Z,53.76
2019-05-06T03:20:53.165Z,53.74
2019-05-06T03:23:16.374Z,53.77
2019-05-06T03:25:43.981Z,53.89
2019-05-06T03:28:08.392Z,53.75
2019-05-06T03:30:36.290Z,53.76
2019-05-06T03:33:30.962Z,53.74
2019-05-06T03:35:42.038Z,53.76
2019-05-06T03:37:53.241Z,53.76
2019-05-06T03:40:18.467Z,53.73
2019-05-06T03:42:44.467Z,53.68
2019-05-06T03:45:13.058Z,53.85
2019-05-06T03:47:36.486Z,53.76
2019-05-06T03:50:04.735Z,53.67
2019-05-06T03:52:28.500Z,53.73
2019-05-06T03:54:54.508Z,53.70
2019-05-06T03:57:23.037Z,53.66
2019-05-06T03:59:46.542Z,53.70
2019-05-06T04:02:13.352Z,53.63
2019-05-06T04:04:38.562Z,53.70
2019-05-06T04:07:04.568Z,53.66
2019-05-06T04:09:33.538Z,53.66
2019-05-06T04:11:56.586Z,53.66
2019-05-06T04:14:23.840Z,53.65
2019-05-06T04:16:48.611Z,53.63
2019-05-06T04:19:14.632Z,53.65
2019-05-06T04:21:43.430Z,53.59
2019-05-06T04:24:06.706Z,53.66
2019-05-06T04:26:33.048Z,53.64
2019-05-06T04:28:58.709Z,53.63
2019-05-06T04:31:24.728Z,53.56
2019-05-06T04:34:08.468Z,53.62
2019-05-06T04:36:16.740Z,53.60
2019-05-06T04:38:43.407Z,53.59
2019-05-06T04:41:08.753Z,53.55
2019-05-06T04:43:34.744Z,53.57
2019-05-06T04:46:03.087Z,53.61
2019-05-06T04:48:26.789Z,53.55
2019-05-06T04:50:53.775Z,53.51
2019-05-06T04:53:18.887Z,53.57
2019-05-06T04:55:44.883Z,53.51
2019-05-06T04:58:13.466Z,53.52
2019-05-06T05:00:36.902Z,53.69
2019-05-06T05:03:03.133Z,53.62
2019-05-06T05:05:28.949Z,53.86
2019-05-06T05:07:54.963Z,53.90
2019-05-06T05:10:23.124Z,54.01
2019-05-06T05:12:46.993Z,54.00
2019-05-06T05:15:12.988Z,53.82
2019-05-06T05:17:39.040Z,54.00
2019-05-06T05:20:05.034Z,53.77
2019-05-06T05:22:32.541Z,54.09
2019-05-06T05:24:57.054Z,53.83
2019-05-06T05:27:23.260Z,53.83
2019-05-06T05:29:49.374Z,53.86
2019-05-06T05:32:15.519Z,53.95
2019-05-06T05:34:43.451Z,54.11
2019-05-06T05:37:07.612Z,54.07
2019-05-06T05:39:33.659Z,54.26
2019-05-06T05:41:59.656Z,54.27
2019-05-06T05:44:25.670Z,54.27
2019-05-06T05:46:52.398Z,54.27
2019-05-06T05:49:20.136Z,54.26
2019-05-06T05:51:43.703Z,54.02
2019-05-06T05:54:09.705Z,54.15
2019-05-06T05:56:36.835Z,54.17
2019-05-06T05:59:03.394Z,54.06
2019-05-06T06:01:28.896Z,54.09
2019-05-06T06:03:54.890Z,54.31
2019-05-06T06:06:22.142Z,54.34
2019-05-06T06:08:47.373Z,54.30
2019-05-06T06:11:13.374Z,54.37
2019-05-06T06:13:40.157Z,54.36
2019-05-06T06:16:06.156Z,54.39
2019-05-06T06:18:34.333Z,54.34
2019-05-06T06:21:16.591Z,54.71
2019-05-06T06:23:26.405Z,54.36
2019-05-06T06:25:52.887Z,55.02
2019-05-06T06:28:18.430Z,55.24
2019-05-06T06:30:44.434Z,55.62
2019-05-06T06:33:12.730Z,56.03
2019-05-06T06:35:36.480Z,56.63
2019-05-06T06:38:02.800Z,55.90
2019-05-06T06:40:28.522Z,56.02
2019-05-06T06:42:54.546Z,56.74
2019-05-06T06:45:20.571Z,56.85
2019-05-06T06:47:46.569Z,56.74
2019-05-06T06:50:12.704Z,57.20
2019-05-06T06:52:38.598Z,56.95
2019-05-06T06:55:04.593Z,56.73
2019-05-06T06:57:32.315Z,56.21
2019-05-06T06:59:57.863Z,56.36
2019-05-06T07:02:23.940Z,56.87
2019-05-06T07:04:49.938Z,56.16
2019-05-06T07:07:15.990Z,57.33
2019-05-06T07:09:42.131Z,56.54
2019-05-06T07:12:08.392Z,56.65
2019-05-06T07:14:36.202Z,57.36
2019-05-06T07:17:02.327Z,56.66
2019-05-06T07:19:26.531Z,57.98
2019-05-06T07:21:52.552Z,57.24
2019-05-06T07:24:18.593Z,57.12
2019-05-06T07:26:44.629Z,56.86
2019-05-06T07:29:17.236Z,57.09
2019-05-06T07:31:36.768Z,56.66
2019-05-06T07:34:02.793Z,56.54
2019-05-06T07:36:28.801Z,56.43
2019-05-06T07:38:54.942Z,56.72
2019-05-06T07:41:23.373Z,56.60
2019-05-06T07:43:47.073Z,56.71
2019-05-06T07:46:13.108Z,56.06
2019-05-06T07:48:39.189Z,55.88
2019-05-06T07:51:05.168Z,56.04
2019-05-06T07:53:32.118Z,57.04
2019-05-06T07:55:57.219Z,56.41
2019-05-06T07:58:23.247Z,56.36
2019-05-06T08:00:49.288Z,57.47
2019-05-06T08:03:15.380Z,56.90
2019-05-06T08:05:54.254Z,57.13
2019-05-06T08:08:07.422Z,57.34
2019-05-06T08:10:33.503Z,58.01
2019-05-06T08:12:59.454Z,56.91
2019-05-06T08:15:25.472Z,57.30
2019-05-06T08:17:52.406Z,55.80
2019-05-06T08:20:17.534Z,56.22
2019-05-06T08:22:43.539Z,57.40
2019-05-06T08:25:12.065Z,56.64
2019-05-06T08:27:35.615Z,56.56
2019-05-06T08:30:02.418Z,55.04
2019-05-06T08:32:27.783Z,56.09
2019-05-06T08:34:53.796Z,56.28
2019-05-06T08:37:19.800Z,56.32
2019-05-06T08:39:46.272Z,56.26
2019-05-06T08:42:13.510Z,56.63
2019-05-06T08:44:38.045Z,56.73
2019-05-06T08:47:04.034Z,56.41
2019-05-06T08:49:32.037Z,56.49
2019-05-06T08:51:56.167Z,56.32
2019-05-06T08:54:22.774Z,56.14
2019-05-06T08:56:48.329Z,56.28
2019-05-06T08:59:14.474Z,57.07
2019-05-06T09:01:42.444Z,56.21
2019-05-06T09:04:12.484Z,56.46
2019-05-06T09:06:34.370Z,56.11
2019-05-06T09:08:58.759Z,55.85
2019-05-06T09:11:25.870Z,55.38
2019-05-06T09:13:52.124Z,55.42
2019-05-06T09:16:16.949Z,55.60
2019-05-06T09:18:42.953Z,55.42
2019-05-06T09:21:08.958Z,55.13
2019-05-06T09:23:35.019Z,55.39
2019-05-06T09:26:02.643Z,54.94
2019-05-06T09:28:27.089Z,55.04
2019-05-06T09:30:53.094Z,54.79
2019-05-06T09:33:19.176Z,55.27
2019-05-06T09:35:45.174Z,54.95
2019-05-06T09:38:12.763Z,56.09
2019-05-06T09:40:37.502Z,55.93
2019-05-06T09:43:04.647Z,55.75
2019-05-06T09:45:29.574Z,56.42
2019-05-06T09:47:55.586Z,56.13
2019-05-06T09:50:23.071Z,56.59
2019-05-06T09:52:47.624Z,56.52
2019-05-06T09:55:13.645Z,56.77
2019-05-06T09:57:39.658Z,56.38
2019-05-06T10:00:05.687Z,57.71
2019-05-06T10:02:32.529Z,57.59
2019-05-06T10:04:57.811Z,56.75
2019-05-06T10:07:23.832Z,56.60
2019-05-06T10:09:52.347Z,57.43
2019-05-06T10:12:15.908Z,58.07
2019-05-06T10:14:43.254Z,57.87
2019-05-06T10:17:07.947Z,57.44
2019-05-06T10:19:33.960Z,57.30
2019-05-06T10:22:00.008Z,57.36
2019-05-06T10:24:26.012Z,56.84
2019-05-06T10:26:52.425Z,56.83
2019-05-06T10:29:18.034Z,56.82
2019-05-06T10:31:44.055Z,56.97
2019-05-06T10:34:10.057Z,57.28
2019-05-06T10:36:36.077Z,57.04
2019-05-06T10:39:02.339Z,57.90
2019-05-06T10:41:28.183Z,56.90
2019-05-06T10:43:54.201Z,58.66
2019-05-06T10:46:22.418Z,57.81
2019-05-06T10:48:46.350Z,57.76
2019-05-06T10:51:13.551Z,57.52
2019-05-06T10:53:38.445Z,56.91
2019-05-06T10:56:04.481Z,56.42
2019-05-06T10:58:32.662Z,56.94
2019-05-06T11:00:58.179Z,57.28
2019-05-06T11:03:27.320Z,56.82
2019-05-06T11:05:50.205Z,57.26
2019-05-06T11:08:17.846Z,56.96
2019-05-06T11:10:45.322Z,57.73
2019-05-06T11:13:09.867Z,57.67
2019-05-06T11:15:35.883Z,57.37
2019-05-06T11:18:04.552Z,58.19
2019-05-06T11:20:27.920Z,57.41
2019-05-06T11:22:54.027Z,58.31
2019-05-06T11:25:20.051Z,58.15
2019-05-06T11:27:46.154Z,57.82
2019-05-06T11:30:12.791Z,57.46
2019-05-06T11:32:41.166Z,57.59
2019-05-06T11:35:04.256Z,57.94
2019-05-06T11:37:43.699Z,57.71
2019-05-06T11:39:56.240Z,58.04
2019-05-06T11:42:30.930Z,58.09
2019-05-06T11:44:48.270Z,57.91
2019-05-06T11:47:14.287Z,57.98
2019-05-06T11:49:40.302Z,58.26
2019-05-06T11:52:06.333Z,58.14
2019-05-06T11:54:33.754Z,57.92
2019-05-06T11:56:58.719Z,57.19
2019-05-06T11:59:24.454Z,57.17
2019-05-06T12:01:53.161Z,57.10
2019-05-06T12:04:16.529Z,56.91
2019-05-06T12:06:42.581Z,58.03
2019-05-06T12:09:08.594Z,57.72
2019-05-06T12:11:34.635Z,57.64
2019-05-06T12:14:02.564Z,57.63
2019-05-06T12:16:26.763Z,57.55
2019-05-06T12:18:53.047Z,57.75
2019-05-06T12:21:19.415Z,57.40
2019-05-06T12:23:45.170Z,57.46
2019-05-06T12:26:13.001Z,56.87
2019-05-06T12:28:36.930Z,56.76
2019-05-06T12:31:02.933Z,56.72
2019-05-06T12:33:29.046Z,57.29
2019-05-06T12:35:55.162Z,56.71
2019-05-06T12:38:29.490Z,56.44
2019-05-06T12:40:47.286Z,56.81
2019-05-06T12:43:13.478Z,56.56
2019-05-06T12:45:39.480Z,56.55
2019-05-06T12:48:05.535Z,56.45
2019-05-06T12:50:33.190Z,56.43
2019-05-06T12:52:58.019Z,56.56
2019-05-06T12:55:25.321Z,56.56
2019-05-06T12:57:52.818Z,56.70
2019-05-06T13:00:15.859Z,56.83
2019-05-06T13:02:43.742Z,56.52
2019-05-06T13:05:08.082Z,56.49
2019-05-06T13:07:34.114Z,56.35
2019-05-06T13:10:02.582Z,56.37
2019-05-06T13:12:27.144Z,56.32
2019-05-06T13:14:53.408Z,56.35
2019-05-06T13:17:20.014Z,56.35
2019-05-06T13:19:46.208Z,56.30
2019-05-06T13:22:13.491Z,56.20
2019-05-06T13:24:38.309Z,56.21
2019-05-06T13:27:04.489Z,56.35
2019-05-06T13:29:35.091Z,56.68
2019-05-06T13:31:56.537Z,56.63
2019-05-06T13:34:23.504Z,56.33
2019-05-06T13:36:48.682Z,56.17
2019-05-06T13:39:15.357Z,56.44
2019-05-06T13:41:42.103Z,56.92
2019-05-06T13:44:06.838Z,56.41
2019-05-06T13:46:33.440Z,56.28
2019-05-06T13:48:58.914Z,56.74
2019-05-06T13:51:24.920Z,56.29
2019-05-06T13:53:52.884Z,56.20
2019-05-06T13:56:16.968Z,56.35
2019-05-06T13:58:43.200Z,56.34
2019-05-06T14:01:09.006Z,56.26
2019-05-06T14:03:35.023Z,56.54
2019-05-06T14:06:03.049Z,56.34
2019-05-06T14:08:27.242Z,56.25
2019-05-06T14:10:59.304Z,57.10
2019-05-06T14:13:19.328Z,57.25
2019-05-06T14:15:45.347Z,57.44
2019-05-06T14:18:13.479Z,57.85
2019-05-06T14:20:37.504Z,57.55
2019-05-06T14:23:04.015Z,56.89
2019-05-06T14:25:32.936Z,57.02
2019-05-06T14:27:56.390Z,56.62
2019-05-06T14:30:22.837Z,57.46
2019-05-06T14:32:48.663Z,57.20
2019-05-06T14:35:14.953Z,57.17
2019-05-06T14:37:43.446Z,57.86
2019-05-06T14:40:09.482Z,57.20
2019-05-06T14:42:35.501Z,57.57
2019-05-06T14:45:01.511Z,57.60
2019-05-06T14:47:27.693Z,56.99
2019-05-06T14:49:53.916Z,57.48
2019-05-06T14:52:22.504Z,57.38
2019-05-06T14:54:45.939Z,56.94
2019-05-06T14:57:12.261Z,57.27
2019-05-06T14:59:37.961Z,57.25
2019-05-06T15:02:04.014Z,57.48
2019-05-06T15:04:32.277Z,57.04
2019-05-06T15:06:56.053Z,57.77
2019-05-06T15:09:22.694Z,57.61
2019-05-06T15:11:48.103Z,57.32
2019-05-06T15:14:14.094Z,57.55
2019-05-06T15:16:42.291Z,57.02
2019-05-06T15:19:06.172Z,56.61
2019-05-06T15:21:38.085Z,56.67
2019-05-06T15:23:58.199Z,57.05
2019-05-06T15:26:24.261Z,56.78
2019-05-06T15:28:52.691Z,57.75
2019-05-06T15:31:16.275Z,57.61
2019-05-06T15:33:42.277Z,57.65
2019-05-06T15:36:08.295Z,57.58
2019-05-06T15:38:34.291Z,56.97
2019-05-06T15:41:00.329Z,56.71
2019-05-06T15:43:26.373Z,56.54
2019-05-06T15:45:52.759Z,56.89
2019-05-06T15:48:18.388Z,56.22
2019-05-06T15:50:45.823Z,56.24
2019-05-06T15:53:12.472Z,55.86
2019-05-06T15:55:36.453Z,56.04
2019-05-06T15:58:03.479Z,55.62
2019-05-06T16:00:28.483Z,56.37
2019-05-06T16:02:54.567Z,55.87
2019-05-06T16:05:25.917Z,55.72
2019-05-06T16:07:46.568Z,56.25
2019-05-06T16:10:13.274Z,55.87
2019-05-06T16:12:38.652Z,56.33
2019-05-06T16:15:04.662Z,55.99
2019-05-06T16:17:32.761Z,56.26
2019-05-06T16:19:56.746Z,55.80
2019-05-06T16:22:22.937Z,55.98
2019-05-06T16:24:48.799Z,56.17
2019-05-06T16:27:14.835Z,55.68
2019-05-06T16:29:42.963Z,55.72
2019-05-06T16:32:06.877Z,55.79
2019-05-06T16:34:32.917Z,56.15
2019-05-06T16:36:59.091Z,57.13
2019-05-06T16:39:25.116Z,57.18
2019-05-06T16:41:52.300Z,57.29
2019-05-06T16:44:17.141Z,56.79
2019-05-06T16:46:43.147Z,56.50
2019-05-06T16:49:09.168Z,56.23
2019-05-06T16:51:35.440Z,56.53
2019-05-06T16:54:02.100Z,56.54
2019-05-06T16:56:29.450Z,57.02
2019-05-06T16:58:55.442Z,56.88
2019-05-06T17:01:22.085Z,56.69
2019-05-06T17:03:47.479Z,56.52
2019-05-06T17:06:13.992Z,56.56
2019-05-06T17:08:39.527Z,56.88
2019-05-06T17:11:05.540Z,56.91
2019-05-06T17:13:33.617Z,56.82
2019-05-06T17:15:57.732Z,56.92
2019-05-06T17:18:23.775Z,56.52
2019-05-06T17:20:49.796Z,56.34
2019-05-06T17:23:15.792Z,56.54
2019-05-06T17:25:42.283Z,56.52
2019-05-06T17:28:07.880Z,55.83
2019-05-06T17:30:33.891Z,55.89
2019-05-06T17:33:02.106Z,55.94
2019-05-06T17:35:26.065Z,55.92
2019-05-06T17:37:52.719Z,56.27
2019-05-06T17:40:18.092Z,56.10
2019-05-06T17:42:44.207Z,56.35
2019-05-06T17:45:10.206Z,56.50
2019-05-06T17:47:36.287Z,56.22
2019-05-06T17:50:02.919Z,56.12
2019-05-06T17:52:28.314Z,56.34
2019-05-06T17:54:54.447Z,56.16
2019-05-06T17:57:22.384Z,56.51
2019-05-06T17:59:46.469Z,56.19
2019-05-06T18:02:12.518Z,56.41
2019-05-06T18:04:38.513Z,56.04
2019-05-06T18:07:04.545Z,56.16
2019-05-06T18:09:32.954Z,55.97
2019-05-06T18:11:59.291Z,56.53
2019-05-06T18:14:23.132Z,56.14
2019-05-06T18:16:48.770Z,56.40
2019-05-06T18:19:14.804Z,56.56
2019-05-06T18:21:40.796Z,56.09
2019-05-06T18:24:09.646Z,56.65
2019-05-06T18:26:33.806Z,56.82
2019-05-06T18:28:58.972Z,57.15
2019-05-06T18:31:25.009Z,56.67
2019-05-06T18:33:52.757Z,56.54
2019-05-06T18:36:17.048Z,56.35
2019-05-06T18:38:43.095Z,57.02
2019-05-06T18:41:09.127Z,56.47
2019-05-06T18:43:35.128Z,57.02
2019-05-06T18:46:02.873Z,56.70
2019-05-06T18:48:31.026Z,56.61
2019-05-06T18:50:53.178Z,56.50
2019-05-06T18:53:22.504Z,56.70
2019-05-06T18:55:45.490Z,56.37
2019-05-06T18:58:12.879Z,56.45
2019-05-06T19:00:37.518Z,56.92
2019-05-06T19:03:03.538Z,56.69
2019-05-06T19:05:29.560Z,56.98
2019-05-06T19:07:55.651Z,56.86
2019-05-06T19:10:22.388Z,56.45
2019-05-06T19:12:47.857Z,56.67
2019-05-06T19:15:13.880Z,56.85
2019-05-06T19:17:39.898Z,56.50
2019-05-06T19:20:05.908Z,56.55
2019-05-06T19:22:32.488Z,56.53
2019-05-06T19:24:57.951Z,56.83
2019-05-06T19:27:24.946Z,56.91
2019-05-06T19:29:49.962Z,56.90
2019-05-06T19:32:15.966Z,56.25
2019-05-06T19:34:42.439Z,56.63
2019-05-06T19:37:08.135Z,56.69
2019-05-06T19:39:34.145Z,56.27
2019-05-06T19:42:00.147Z,56.58
2019-05-06T19:44:26.143Z,56.37
2019-05-06T19:46:53.213Z,56.80
2019-05-06T19:49:18.304Z,56.77
2019-05-06T19:51:44.325Z,56.30
2019-05-06T19:54:12.491Z,56.61
2019-05-06T19:56:36.343Z,56.60
2019-05-06T19:59:02.339Z,56.65
2019-05-06T20:01:28.398Z,56.55
2019-05-06T20:03:54.422Z,56.51
2019-05-06T20:06:22.472Z,56.00
2019-05-06T20:08:46.430Z,55.93
2019-05-06T20:11:13.118Z,55.86
2019-05-06T20:13:38.457Z,55.64
2019-05-06T20:16:04.453Z,55.74
2019-05-06T20:18:32.726Z,55.66
2019-05-06T20:20:56.471Z,55.90
2019-05-06T20:23:23.175Z,55.50
2019-05-06T20:25:48.555Z,55.54
2019-05-06T20:28:14.551Z,55.40
2019-05-06T20:30:42.302Z,55.36
2019-05-06T20:33:06.593Z,55.31
2019-05-06T20:35:32.949Z,55.24
2019-05-06T20:37:58.963Z,55.28
2019-05-06T20:40:24.957Z,55.30
2019-05-06T20:42:51.254Z,55.17
2019-05-06T20:45:17.312Z,55.22
2019-05-06T20:47:43.276Z,55.20
2019-05-06T20:50:09.296Z,55.10
2019-05-06T20:52:35.287Z,55.02
2019-05-06T20:55:02.918Z,55.04
2019-05-06T20:57:28.463Z,54.99
2019-05-06T20:59:54.484Z,55.26
2019-05-06T21:02:25.234Z,55.05
2019-05-06T21:04:46.497Z,54.93
2019-05-06T21:07:12.577Z,55.09
2019-05-06T21:09:38.507Z,54.91
2019-05-06T21:12:04.541Z,54.78
2019-05-06T21:14:32.327Z,54.82
2019-05-06T21:16:56.551Z,54.78
2019-05-06T21:19:22.551Z,54.69
2019-05-06T21:21:48.575Z,54.66
2019-05-06T21:24:14.715Z,54.65
2019-05-06T21:26:42.900Z,54.66
2019-05-06T21:29:06.716Z,54.74
2019-05-06T21:31:32.756Z,54.57
2019-05-06T21:33:58.743Z,54.55
2019-05-06T21:36:24.742Z,54.57
2019-05-06T21:38:52.374Z,54.51
2019-05-06T21:41:17.911Z,54.49
2019-05-06T21:43:49.091Z,54.45
2019-05-06T21:46:08.792Z,54.47
2019-05-06T21:48:34.792Z,54.52
2019-05-06T21:51:00.798Z,54.41
2019-05-06T21:53:26.901Z,54.38
2019-05-06T21:55:52.895Z,54.34
2019-05-06T21:58:18.914Z,54.34
2019-05-06T22:00:44.976Z,54.33
2019-05-06T22:03:13.194Z,54.29
2019-05-06T22:05:37.190Z,54.30
2019-05-06T22:08:03.191Z,54.26
2019-05-06T22:10:29.212Z,54.26
2019-05-06T22:12:55.214Z,54.26
2019-05-06T22:15:22.809Z,54.20
2019-05-06T22:17:47.228Z,54.16
2019-05-06T22:20:13.224Z,54.18
2019-05-06T22:22:39.285Z,54.14
2019-05-06T22:25:05.260Z,54.12
2019-05-06T22:27:31.273Z,54.10
2019-05-06T22:29:57.295Z,54.10
2019-05-06T22:32:23.342Z,54.08
2019-05-06T22:34:49.322Z,54.06
2019-05-06T22:37:15.314Z,54.01
2019-05-06T22:39:43.588Z,54.01
2019-05-06T22:42:07.329Z,53.98
2019-05-06T22:44:33.357Z,53.96
2019-05-06T22:46:59.367Z,53.97
2019-05-06T22:49:25.364Z,53.94
2019-05-06T22:51:52.201Z,53.91
2019-05-06T22:54:17.387Z,53.88
2019-05-06T22:56:43.411Z,53.88
2019-05-06T22:59:09.425Z,53.86
2019-05-06T23:01:35.454Z,53.83
2019-05-06T23:04:02.046Z,53.86
2019-05-06T23:06:27.466Z,53.80
2019-05-06T23:08:53.470Z,53.77
2019-05-06T23:11:19.486Z,53.78
2019-05-06T23:13:45.498Z,53.76
2019-05-06T23:16:12.877Z,53.72
2019-05-06T23:18:37.530Z,53.71
2019-05-06T23:21:03.521Z,53.71
2019-05-06T23:23:29.563Z,53.68
2019-05-06T23:25:55.555Z,53.67
2019-05-06T23:28:22.720Z,53.64
2019-05-06T23:30:47.575Z,53.64
2019-05-06T23:33:14.028Z,53.58
2019-05-06T23:35:39.593Z,53.58
2019-05-06T23:38:05.590Z,53.58
2019-05-06T23:40:33.088Z,53.56
2019-05-06T23:42:57.608Z,53.54
2019-05-06T23:45:23.636Z,53.54
2019-05-06T23:47:49.628Z,53.52
2019-05-06T23:50:15.676Z,53.51
2019-05-06T23:52:41.678Z,53.48
2019-05-06T23:55:07.692Z,53.46
2019-05-06T23:57:33.710Z,53.46
2019-05-06T23:59:59.707Z,53.44
